sensor_id;sensor_type;location;lat;lon;timestamp;P1;durP1;ratioP1;P2;durP2;ratioP2
9260;SDS011;4667;42.726;23.252;2022-08-21T07:25:35;13.60;;;8.98;;
9260;SDS011;4667;42.726;23.252;2022-08-21T07:28:02;15.90;;;8.85;;
9260;SDS011;4667;42.726;23.252;2022-08-21T07:30:29;14.52;;;8.93;;
9260;SDS011;4667;42.726;23.252;2022-08-21T07:32:56;12.75;;;10.30;;
9260;SDS011;4667;42.726;23.252;2022-08-21T07:35:23;13.02;;;8.38;;
9260;SDS011;4667;42.726;23.252;2022-08-21T07:37:50;12.93;;;9.30;;
9260;SDS011;4667;42.726;23.252;2022-08-21T07:40:17;16.90;;;9.25;;
9260;SDS011;4667;42.726;23.252;2022-08-21T07:42:46;13.70;;;8.38;;
9260;SDS011;4667;42.726;23.252;2022-08-21T07:45:14;15.38;;;10.00;;
9260;SDS011;4667;42.726;23.252;2022-08-21T07:47:41;15.73;;;9.50;;
9260;SDS011;4667;42.726;23.252;2022-08-21T08:18:20;8.23;;;6.55;;
9260;SDS011;4667;42.726;23.252;2022-08-21T08:20:46;12.43;;;7.63;;
9260;SDS011;4667;42.726;23.252;2022-08-21T08:23:13;9.93;;;7.78;;
9260;SDS011;4667;42.726;23.252;2022-08-21T08:25:40;11.73;;;8.80;;
9260;SDS011;4667;42.726;23.252;2022-08-21T08:28:07;10.55;;;8.18;;
9260;SDS011;4667;42.726;23.252;2022-08-21T08:30:33;9.93;;;7.30;;
9260;SDS011;4667;42.726;23.252;2022-08-21T08:33:00;10.15;;;7.78;;
9260;SDS011;4667;42.726;23.252;2022-08-21T08:35:28;10.27;;;6.45;;
9260;SDS011;4667;42.726;23.252;2022-08-21T08:37:54;12.30;;;6.63;;
9260;SDS011;4667;42.726;23.252;2022-08-21T08:40:22;9.13;;;6.50;;
9260;SDS011;4667;42.726;23.252;2022-08-21T08:42:51;9.18;;;6.47;;
9260;SDS011;4667;42.726;23.252;2022-08-21T08:45:19;8.68;;;6.60;;
9260;SDS011;4667;42.726;23.252;2022-08-21T08:47:47;10.40;;;7.38;;
9260;SDS011;4667;42.726;23.252;2022-08-21T08:50:17;8.98;;;6.30;;
9260;SDS011;4667;42.726;23.252;2022-08-21T08:52:48;9.02;;;6.25;;
9260;SDS011;4667;42.726;23.252;2022-08-21T08:55:17;10.50;;;6.05;;
9260;SDS011;4667;42.726;23.252;2022-08-21T08:57:45;9.35;;;6.05;;
9260;SDS011;4667;42.726;23.252;2022-08-21T09:00:13;8.93;;;6.00;;
9260;SDS011;4667;42.726;23.252;2022-08-21T09:02:40;8.07;;;5.32;;
9260;SDS011;4667;42.726;23.252;2022-08-21T09:05:07;8.30;;;6.03;;
9260;SDS011;4667;42.726;23.252;2022-08-21T09:07:35;8.20;;;5.93;;
9260;SDS011;4667;42.726;23.252;2022-08-21T09:10:12;6.80;;;6.05;;
9260;SDS011;4667;42.726;23.252;2022-08-21T09:12:42;7.63;;;5.47;;
9260;SDS011;4667;42.726;23.252;2022-08-21T09:15:13;9.13;;;5.05;;
9260;SDS011;4667;42.726;23.252;2022-08-21T09:17:49;7.85;;;5.78;;
9260;SDS011;4667;42.726;23.252;2022-08-21T09:20:22;8.95;;;4.78;;
9260;SDS011;4667;42.726;23.252;2022-08-21T09:22:53;8.90;;;5.00;;
9260;SDS011;4667;42.726;23.252;2022-08-21T09:25:25;8.90;;;4.63;;
9260;SDS011;4667;42.726;23.252;2022-08-21T09:27:52;7.03;;;4.70;;
9260;SDS011;4667;42.726;23.252;2022-08-21T09:30:19;6.57;;;4.38;;
9260;SDS011;4667;42.726;23.252;2022-08-21T09:32:49;6.00;;;4.95;;
9260;SDS011;4667;42.726;23.252;2022-08-21T09:35:17;8.27;;;5.25;;
9260;SDS011;4667;42.726;23.252;2022-08-21T09:37:46;7.93;;;5.13;;
9260;SDS011;4667;42.726;23.252;2022-08-21T09:40:18;9.50;;;5.13;;
9260;SDS011;4667;42.726;23.252;2022-08-21T09:42:54;10.32;;;5.10;;
9260;SDS011;4667;42.726;23.252;2022-08-21T09:45:21;8.60;;;5.40;;
9260;SDS011;4667;42.726;23.252;2022-08-21T09:47:48;5.63;;;4.10;;
9260;SDS011;4667;42.726;23.252;2022-08-21T09:50:15;4.95;;;3.60;;
9260;SDS011;4667;42.726;23.252;2022-08-21T09:52:42;9.27;;;3.72;;
9260;SDS011;4667;42.726;23.252;2022-08-21T09:55:13;8.95;;;3.83;;
9260;SDS011;4667;42.726;23.252;2022-08-21T09:58:02;5.05;;;3.67;;
9260;SDS011;4667;42.726;23.252;2022-08-21T10:00:28;6.13;;;4.40;;
9260;SDS011;4667;42.726;23.252;2022-08-21T10:02:56;8.48;;;4.65;;
9260;SDS011;4667;42.726;23.252;2022-08-21T10:05:33;8.48;;;4.30;;
9260;SDS011;4667;42.726;23.252;2022-08-21T10:07:59;7.55;;;4.53;;
9260;SDS011;4667;42.726;23.252;2022-08-21T10:10:28;5.47;;;4.57;;
9260;SDS011;4667;42.726;23.252;2022-08-21T10:12:57;9.60;;;4.95;;
9260;SDS011;4667;42.726;23.252;2022-08-21T10:15:32;5.78;;;4.25;;
9260;SDS011;4667;42.726;23.252;2022-08-21T10:18:02;5.00;;;3.95;;
9260;SDS011;4667;42.726;23.252;2022-08-21T10:20:31;7.55;;;4.00;;
9260;SDS011;4667;42.726;23.252;2022-08-21T10:23:06;4.68;;;4.03;;
9260;SDS011;4667;42.726;23.252;2022-08-21T10:25:36;7.90;;;3.83;;
9260;SDS011;4667;42.726;23.252;2022-08-21T10:28:05;7.68;;;4.07;;
9260;SDS011;4667;42.726;23.252;2022-08-21T10:30:38;5.28;;;3.70;;
9260;SDS011;4667;42.726;23.252;2022-08-21T10:33:12;5.63;;;4.10;;
9260;SDS011;4667;42.726;23.252;2022-08-21T10:35:41;6.95;;;3.60;;
9260;SDS011;4667;42.726;23.252;2022-08-21T10:38:21;5.25;;;3.92;;
9260;SDS011;4667;42.726;23.252;2022-08-21T10:40:53;5.85;;;4.28;;
9260;SDS011;4667;42.726;23.252;2022-08-21T10:43:24;8.07;;;4.10;;
9260;SDS011;4667;42.726;23.252;2022-08-21T10:45:57;8.82;;;3.83;;
9260;SDS011;4667;42.726;23.252;2022-08-21T10:48:28;6.82;;;3.92;;
9260;SDS011;4667;42.726;23.252;2022-08-21T10:50:55;5.55;;;3.58;;
9260;SDS011;4667;42.726;23.252;2022-08-21T10:53:32;5.13;;;3.63;;
9260;SDS011;4667;42.726;23.252;2022-08-21T10:56:02;7.55;;;3.80;;
9260;SDS011;4667;42.726;23.252;2022-08-21T10:58:33;5.72;;;3.70;;
9260;SDS011;4667;42.726;23.252;2022-08-21T11:01:07;7.00;;;3.80;;
9260;SDS011;4667;42.726;23.252;2022-08-21T11:03:39;8.82;;;4.07;;
9260;SDS011;4667;42.726;23.252;2022-08-21T11:06:08;5.22;;;3.80;;
9260;SDS011;4667;42.726;23.252;2022-08-21T11:08:38;4.20;;;3.70;;
9260;SDS011;4667;42.726;23.252;2022-08-21T11:11:05;7.25;;;4.45;;
9260;SDS011;4667;42.726;23.252;2022-08-21T11:13:36;6.57;;;3.95;;
9260;SDS011;4667;42.726;23.252;2022-08-21T11:16:05;5.65;;;3.92;;
9260;SDS011;4667;42.726;23.252;2022-08-21T11:18:34;5.22;;;3.65;;
9260;SDS011;4667;42.726;23.252;2022-08-21T11:21:02;6.00;;;3.90;;
9260;SDS011;4667;42.726;23.252;2022-08-21T11:23:31;5.80;;;3.53;;
9260;SDS011;4667;42.726;23.252;2022-08-21T11:26:01;8.07;;;4.28;;
9260;SDS011;4667;42.726;23.252;2022-08-21T11:28:29;6.32;;;4.20;;
9260;SDS011;4667;42.726;23.252;2022-08-21T11:30:59;8.07;;;6.43;;
9260;SDS011;4667;42.726;23.252;2022-08-21T11:33:43;7.30;;;3.97;;
9260;SDS011;4667;42.726;23.252;2022-08-21T11:36:14;5.55;;;3.70;;
9260;SDS011;4667;42.726;23.252;2022-08-21T11:38:42;6.82;;;4.90;;
9260;SDS011;4667;42.726;23.252;2022-08-21T11:41:23;7.25;;;4.00;;
9260;SDS011;4667;42.726;23.252;2022-08-21T11:43:53;5.70;;;3.90;;
9260;SDS011;4667;42.726;23.252;2022-08-21T11:46:23;5.70;;;3.58;;
9260;SDS011;4667;42.726;23.252;2022-08-21T11:49:06;5.45;;;4.03;;
9260;SDS011;4667;42.726;23.252;2022-08-21T11:51:38;9.70;;;5.35;;
9260;SDS011;4667;42.726;23.252;2022-08-21T11:54:07;5.95;;;4.18;;
9260;SDS011;4667;42.726;23.252;2022-08-21T11:56:37;6.95;;;4.13;;
9260;SDS011;4667;42.726;23.252;2022-08-21T11:59:08;5.63;;;4.05;;
9260;SDS011;4667;42.726;23.252;2022-08-21T12:01:37;4.95;;;4.43;;
9260;SDS011;4667;42.726;23.252;2022-08-21T12:04:08;7.18;;;4.80;;
9260;SDS011;4667;42.726;23.252;2022-08-21T12:06:36;5.00;;;4.00;;
9260;SDS011;4667;42.726;23.252;2022-08-21T12:09:05;4.93;;;4.40;;
9260;SDS011;4667;42.726;23.252;2022-08-21T12:11:32;6.50;;;3.67;;
9260;SDS011;4667;42.726;23.252;2022-08-21T12:14:12;4.18;;;3.78;;
9260;SDS011;4667;42.726;23.252;2022-08-21T12:16:40;8.68;;;3.90;;
9260;SDS011;4667;42.726;23.252;2022-08-21T12:19:09;4.55;;;3.17;;
9260;SDS011;4667;42.726;23.252;2022-08-21T12:21:47;5.68;;;4.10;;
9260;SDS011;4667;42.726;23.252;2022-08-21T12:24:18;5.85;;;3.67;;
9260;SDS011;4667;42.726;23.252;2022-08-21T12:26:48;9.45;;;4.38;;
9260;SDS011;4667;42.726;23.252;2022-08-21T12:29:16;7.65;;;4.40;;
9260;SDS011;4667;42.726;23.252;2022-08-21T12:31:50;6.15;;;4.00;;
9260;SDS011;4667;42.726;23.252;2022-08-21T12:34:18;7.70;;;3.95;;
9260;SDS011;4667;42.726;23.252;2022-08-21T12:36:46;5.97;;;3.92;;
9260;SDS011;4667;42.726;23.252;2022-08-21T12:39:16;6.57;;;3.90;;
9260;SDS011;4667;42.726;23.252;2022-08-21T12:41:46;4.78;;;3.83;;
9260;SDS011;4667;42.726;23.252;2022-08-21T12:44:14;4.78;;;3.70;;
9260;SDS011;4667;42.726;23.252;2022-08-21T12:46:43;5.55;;;3.67;;
9260;SDS011;4667;42.726;23.252;2022-08-21T12:49:13;4.85;;;3.33;;
9260;SDS011;4667;42.726;23.252;2022-08-21T12:51:46;7.32;;;3.97;;
9260;SDS011;4667;42.726;23.252;2022-08-21T12:54:21;6.05;;;3.85;;
9260;SDS011;4667;42.726;23.252;2022-08-21T12:56:55;5.60;;;4.45;;
9260;SDS011;4667;42.726;23.252;2022-08-21T12:59:21;5.20;;;4.00;;
9260;SDS011;4667;42.726;23.252;2022-08-21T13:01:49;6.28;;;3.53;;
9260;SDS011;4667;42.726;23.252;2022-08-21T13:04:17;6.50;;;3.55;;
9260;SDS011;4667;42.726;23.252;2022-08-21T13:06:47;6.70;;;4.25;;
9260;SDS011;4667;42.726;23.252;2022-08-21T13:09:14;5.50;;;4.13;;
9260;SDS011;4667;42.726;23.252;2022-08-21T13:11:42;8.75;;;4.60;;
9260;SDS011;4667;42.726;23.252;2022-08-21T13:14:15;5.35;;;3.92;;
9260;SDS011;4667;42.726;23.252;2022-08-21T13:16:44;6.97;;;4.13;;
9260;SDS011;4667;42.726;23.252;2022-08-21T13:19:11;5.25;;;3.47;;
9260;SDS011;4667;42.726;23.252;2022-08-21T13:21:43;6.63;;;4.38;;
9260;SDS011;4667;42.726;23.252;2022-08-21T13:24:14;5.85;;;4.18;;
9260;SDS011;4667;42.726;23.252;2022-08-21T13:26:41;6.68;;;4.00;;
9260;SDS011;4667;42.726;23.252;2022-08-21T13:29:09;9.63;;;4.13;;
9260;SDS011;4667;42.726;23.252;2022-08-21T13:31:36;5.57;;;4.57;;
9260;SDS011;4667;42.726;23.252;2022-08-21T13:34:04;5.63;;;3.80;;
9260;SDS011;4667;42.726;23.252;2022-08-21T13:36:35;8.77;;;4.10;;
9260;SDS011;4667;42.726;23.252;2022-08-21T13:39:02;6.32;;;4.20;;
9260;SDS011;4667;42.726;23.252;2022-08-21T13:41:31;4.80;;;3.95;;
9260;SDS011;4667;42.726;23.252;2022-08-21T13:43:59;5.70;;;3.58;;
9260;SDS011;4667;42.726;23.252;2022-08-21T13:46:26;4.78;;;3.45;;
9260;SDS011;4667;42.726;23.252;2022-08-21T13:48:57;6.07;;;4.25;;
9260;SDS011;4667;42.726;23.252;2022-08-21T13:51:27;6.68;;;3.97;;
9260;SDS011;4667;42.726;23.252;2022-08-21T13:53:54;5.38;;;3.65;;
9260;SDS011;4667;42.726;23.252;2022-08-21T13:56:21;8.15;;;4.30;;
9260;SDS011;4667;42.726;23.252;2022-08-21T13:58:49;8.23;;;3.90;;
9260;SDS011;4667;42.726;23.252;2022-08-21T14:01:18;7.47;;;4.00;;
9260;SDS011;4667;42.726;23.252;2022-08-21T14:03:45;7.00;;;3.58;;
9260;SDS011;4667;42.726;23.252;2022-08-21T14:06:14;7.22;;;3.97;;
9260;SDS011;4667;42.726;23.252;2022-08-21T14:08:42;5.07;;;3.90;;
9260;SDS011;4667;42.726;23.252;2022-08-21T14:11:13;7.30;;;3.70;;
9260;SDS011;4667;42.726;23.252;2022-08-21T14:13:41;5.03;;;3.35;;
9260;SDS011;4667;42.726;23.252;2022-08-21T14:16:15;7.72;;;3.67;;
9260;SDS011;4667;42.726;23.252;2022-08-21T14:18:43;7.65;;;4.00;;
9260;SDS011;4667;42.726;23.252;2022-08-21T14:21:10;6.47;;;4.10;;
9260;SDS011;4667;42.726;23.252;2022-08-21T14:23:38;6.22;;;3.92;;
9260;SDS011;4667;42.726;23.252;2022-08-21T14:26:05;7.28;;;3.67;;
9260;SDS011;4667;42.726;23.252;2022-08-21T14:28:33;5.75;;;3.53;;
9260;SDS011;4667;42.726;23.252;2022-08-21T14:31:10;5.28;;;3.08;;
9260;SDS011;4667;42.726;23.252;2022-08-21T14:33:39;6.53;;;3.20;;
9260;SDS011;4667;42.726;23.252;2022-08-21T14:36:05;4.13;;;3.05;;
9260;SDS011;4667;42.726;23.252;2022-08-21T14:38:34;5.70;;;3.20;;
9260;SDS011;4667;42.726;23.252;2022-08-21T14:41:03;4.30;;;3.35;;
9260;SDS011;4667;42.726;23.252;2022-08-21T14:43:30;6.78;;;3.05;;
9260;SDS011;4667;42.726;23.252;2022-08-21T14:45:58;8.75;;;3.45;;
9260;SDS011;4667;42.726;23.252;2022-08-21T14:48:27;6.47;;;3.47;;
9260;SDS011;4667;42.726;23.252;2022-08-21T14:50:54;3.53;;;3.13;;
9260;SDS011;4667;42.726;23.252;2022-08-21T14:53:21;3.90;;;3.25;;
9260;SDS011;4667;42.726;23.252;2022-08-21T14:55:48;3.58;;;3.22;;
9260;SDS011;4667;42.726;23.252;2022-08-21T14:58:33;4.72;;;3.42;;
9260;SDS011;4667;42.726;23.252;2022-08-21T15:01:01;4.95;;;3.50;;
9260;SDS011;4667;42.726;23.252;2022-08-21T15:03:29;6.93;;;3.55;;
9260;SDS011;4667;42.726;23.252;2022-08-21T15:05:57;8.70;;;5.15;;
9260;SDS011;4667;42.726;23.252;2022-08-21T15:08:24;6.28;;;4.07;;
9260;SDS011;4667;42.726;23.252;2022-08-21T15:10:51;6.55;;;4.30;;
9260;SDS011;4667;42.726;23.252;2022-08-21T15:13:21;7.45;;;4.45;;
9260;SDS011;4667;42.726;23.252;2022-08-21T15:15:48;9.38;;;5.75;;
9260;SDS011;4667;42.726;23.252;2022-08-21T15:18:15;4.45;;;3.75;;
9260;SDS011;4667;42.726;23.252;2022-08-21T15:20:41;5.75;;;3.92;;
9260;SDS011;4667;42.726;23.252;2022-08-21T15:23:09;6.55;;;5.05;;
9260;SDS011;4667;42.726;23.252;2022-08-21T15:25:36;5.97;;;4.40;;
9260;SDS011;4667;42.726;23.252;2022-08-21T15:28:02;5.50;;;4.15;;
9260;SDS011;4667;42.726;23.252;2022-08-21T15:30:29;6.63;;;4.20;;
9260;SDS011;4667;42.726;23.252;2022-08-21T15:32:56;5.53;;;3.88;;
9260;SDS011;4667;42.726;23.252;2022-08-21T15:35:22;7.80;;;4.20;;
9260;SDS011;4667;42.726;23.252;2022-08-21T15:37:49;7.60;;;4.30;;
9260;SDS011;4667;42.726;23.252;2022-08-21T15:40:17;7.75;;;4.88;;
9260;SDS011;4667;42.726;23.252;2022-08-21T15:42:43;8.68;;;4.57;;
9260;SDS011;4667;42.726;23.252;2022-08-21T15:45:11;9.43;;;4.85;;
9260;SDS011;4667;42.726;23.252;2022-08-21T15:47:38;6.82;;;4.88;;
9260;SDS011;4667;42.726;23.252;2022-08-21T15:50:06;6.97;;;4.55;;
9260;SDS011;4667;42.726;23.252;2022-08-21T15:52:33;7.13;;;4.65;;
9260;SDS011;4667;42.726;23.252;2022-08-21T15:55:00;6.90;;;4.45;;
9260;SDS011;4667;42.726;23.252;2022-08-21T15:57:28;5.65;;;3.88;;
9260;SDS011;4667;42.726;23.252;2022-08-21T15:59:55;8.82;;;5.35;;
9260;SDS011;4667;42.726;23.252;2022-08-21T16:02:23;18.38;;;10.95;;
9260;SDS011;4667;42.726;23.252;2022-08-21T16:04:50;6.55;;;5.18;;
9260;SDS011;4667;42.726;23.252;2022-08-21T16:07:16;6.50;;;4.63;;
9260;SDS011;4667;42.726;23.252;2022-08-21T16:09:43;8.50;;;5.03;;
9260;SDS011;4667;42.726;23.252;2022-08-21T16:12:10;7.35;;;5.00;;
9260;SDS011;4667;42.726;23.252;2022-08-21T16:14:38;8.60;;;4.93;;
9260;SDS011;4667;42.726;23.252;2022-08-21T16:17:05;7.63;;;4.43;;
9260;SDS011;4667;42.726;23.252;2022-08-21T16:19:31;8.50;;;5.13;;
9260;SDS011;4667;42.726;23.252;2022-08-21T16:21:58;9.02;;;4.95;;
9260;SDS011;4667;42.726;23.252;2022-08-21T16:24:25;7.20;;;4.38;;
9260;SDS011;4667;42.726;23.252;2022-08-21T16:26:51;5.85;;;4.50;;
9260;SDS011;4667;42.726;23.252;2022-08-21T16:29:18;4.95;;;4.07;;
9260;SDS011;4667;42.726;23.252;2022-08-21T16:31:46;7.18;;;4.30;;
9260;SDS011;4667;42.726;23.252;2022-08-21T16:34:15;6.63;;;4.35;;
9260;SDS011;4667;42.726;23.252;2022-08-21T16:36:42;7.13;;;5.20;;
9260;SDS011;4667;42.726;23.252;2022-08-21T16:39:10;5.68;;;4.57;;
9260;SDS011;4667;42.726;23.252;2022-08-21T16:41:36;13.20;;;5.05;;
9260;SDS011;4667;42.726;23.252;2022-08-21T16:44:03;7.40;;;4.65;;
9260;SDS011;4667;42.726;23.252;2022-08-21T16:46:32;8.30;;;5.25;;
9260;SDS011;4667;42.726;23.252;2022-08-21T16:49:00;7.63;;;4.55;;
9260;SDS011;4667;42.726;23.252;2022-08-21T16:51:26;8.60;;;4.57;;
9260;SDS011;4667;42.726;23.252;2022-08-21T16:53:55;7.72;;;4.50;;
9260;SDS011;4667;42.726;23.252;2022-08-21T16:56:22;6.32;;;4.75;;
9260;SDS011;4667;42.726;23.252;2022-08-21T16:58:49;9.30;;;6.22;;
9260;SDS011;4667;42.726;23.252;2022-08-21T17:01:17;11.10;;;6.55;;
9260;SDS011;4667;42.726;23.252;2022-08-21T17:03:46;7.13;;;4.93;;
9260;SDS011;4667;42.726;23.252;2022-08-21T17:06:14;9.55;;;7.50;;
9260;SDS011;4667;42.726;23.252;2022-08-21T17:08:41;8.65;;;5.72;;
9260;SDS011;4667;42.726;23.252;2022-08-21T17:11:10;10.88;;;8.35;;
9260;SDS011;4667;42.726;23.252;2022-08-21T17:13:37;8.18;;;5.55;;
9260;SDS011;4667;42.726;23.252;2022-08-21T17:16:04;11.60;;;6.40;;
9260;SDS011;4667;42.726;23.252;2022-08-21T17:18:31;6.68;;;4.78;;
9260;SDS011;4667;42.726;23.252;2022-08-21T17:20:57;6.38;;;4.88;;
9260;SDS011;4667;42.726;23.252;2022-08-21T17:23:25;7.95;;;5.00;;
9260;SDS011;4667;42.726;23.252;2022-08-21T17:25:52;7.70;;;4.95;;
9260;SDS011;4667;42.726;23.252;2022-08-21T17:28:20;7.55;;;5.22;;
9260;SDS011;4667;42.726;23.252;2022-08-21T17:30:47;6.05;;;5.05;;
9260;SDS011;4667;42.726;23.252;2022-08-21T17:33:14;9.45;;;5.75;;
9260;SDS011;4667;42.726;23.252;2022-08-21T17:35:42;8.15;;;6.10;;
9260;SDS011;4667;42.726;23.252;2022-08-21T17:38:09;7.80;;;5.40;;
9260;SDS011;4667;42.726;23.252;2022-08-21T17:40:37;8.70;;;5.00;;
9260;SDS011;4667;42.726;23.252;2022-08-21T17:43:04;9.23;;;5.80;;
9260;SDS011;4667;42.726;23.252;2022-08-21T17:45:32;7.90;;;5.88;;
9260;SDS011;4667;42.726;23.252;2022-08-21T17:47:58;8.10;;;6.40;;
9260;SDS011;4667;42.726;23.252;2022-08-21T17:50:25;9.45;;;6.30;;
9260;SDS011;4667;42.726;23.252;2022-08-21T17:52:51;9.60;;;5.35;;
9260;SDS011;4667;42.726;23.252;2022-08-21T17:55:18;11.75;;;5.85;;
9260;SDS011;4667;42.726;23.252;2022-08-21T17:57:48;6.80;;;5.30;;
9260;SDS011;4667;42.726;23.252;2022-08-21T18:00:15;11.57;;;6.50;;
9260;SDS011;4667;42.726;23.252;2022-08-21T18:02:43;8.25;;;6.10;;
9260;SDS011;4667;42.726;23.252;2022-08-21T18:05:10;8.88;;;5.82;;
9260;SDS011;4667;42.726;23.252;2022-08-21T18:07:37;10.60;;;5.78;;
9260;SDS011;4667;42.726;23.252;2022-08-21T18:10:05;7.07;;;5.35;;
9260;SDS011;4667;42.726;23.252;2022-08-21T18:12:31;7.93;;;5.20;;
9260;SDS011;4667;42.726;23.252;2022-08-21T18:15:00;8.07;;;6.22;;
9260;SDS011;4667;42.726;23.252;2022-08-21T18:17:27;10.43;;;7.40;;
9260;SDS011;4667;42.726;23.252;2022-08-21T18:19:56;8.57;;;7.03;;
9260;SDS011;4667;42.726;23.252;2022-08-21T18:22:23;8.02;;;6.45;;
9260;SDS011;4667;42.726;23.252;2022-08-21T18:24:50;9.23;;;6.35;;
9260;SDS011;4667;42.726;23.252;2022-08-21T18:27:16;7.53;;;6.18;;
9260;SDS011;4667;42.726;23.252;2022-08-21T18:29:43;7.63;;;5.55;;
9260;SDS011;4667;42.726;23.252;2022-08-21T18:32:11;9.20;;;6.00;;
9260;SDS011;4667;42.726;23.252;2022-08-21T18:34:39;7.60;;;5.80;;
9260;SDS011;4667;42.726;23.252;2022-08-21T18:37:07;9.50;;;6.55;;
9260;SDS011;4667;42.726;23.252;2022-08-21T18:39:34;7.97;;;5.25;;
9260;SDS011;4667;42.726;23.252;2022-08-21T18:42:02;8.07;;;5.85;;
9260;SDS011;4667;42.726;23.252;2022-08-21T18:44:29;9.05;;;6.13;;
9260;SDS011;4667;42.726;23.252;2022-08-21T18:46:56;8.85;;;5.38;;
9260;SDS011;4667;42.726;23.252;2022-08-21T18:49:25;9.30;;;5.82;;
9260;SDS011;4667;42.726;23.252;2022-08-21T18:51:52;6.53;;;5.28;;
9260;SDS011;4667;42.726;23.252;2022-08-21T18:54:18;11.60;;;5.82;;
9260;SDS011;4667;42.726;23.252;2022-08-21T18:56:45;8.77;;;5.55;;
9260;SDS011;4667;42.726;23.252;2022-08-21T18:59:12;7.90;;;5.45;;
9260;SDS011;4667;42.726;23.252;2022-08-21T19:01:41;8.20;;;5.65;;
9260;SDS011;4667;42.726;23.252;2022-08-21T19:04:08;11.50;;;5.90;;
9260;SDS011;4667;42.726;23.252;2022-08-21T19:06:36;7.68;;;4.82;;
9260;SDS011;4667;42.726;23.252;2022-08-21T19:09:03;8.90;;;6.40;;
9260;SDS011;4667;42.726;23.252;2022-08-21T19:11:31;8.93;;;6.03;;
9260;SDS011;4667;42.726;23.252;2022-08-21T19:13:59;11.13;;;6.07;;
9260;SDS011;4667;42.726;23.252;2022-08-21T19:16:26;8.93;;;6.25;;
9260;SDS011;4667;42.726;23.252;2022-08-21T19:18:52;10.25;;;6.75;;
9260;SDS011;4667;42.726;23.252;2022-08-21T19:21:19;8.85;;;5.93;;
9260;SDS011;4667;42.726;23.252;2022-08-21T19:23:47;9.02;;;5.88;;
9260;SDS011;4667;42.726;23.252;2022-08-21T19:26:14;10.75;;;5.75;;
9260;SDS011;4667;42.726;23.252;2022-08-21T19:28:44;8.77;;;6.38;;
9260;SDS011;4667;42.726;23.252;2022-08-21T19:31:12;12.10;;;6.50;;
9260;SDS011;4667;42.726;23.252;2022-08-21T19:33:40;11.30;;;5.80;;
9260;SDS011;4667;42.726;23.252;2022-08-21T19:36:08;6.77;;;5.53;;
9260;SDS011;4667;42.726;23.252;2022-08-21T19:38:34;8.20;;;6.00;;
9260;SDS011;4667;42.726;23.252;2022-08-21T19:41:03;9.23;;;5.97;;
9260;SDS011;4667;42.726;23.252;2022-08-21T19:43:30;8.37;;;6.50;;
9260;SDS011;4667;42.726;23.252;2022-08-21T19:45:57;8.30;;;5.97;;
9260;SDS011;4667;42.726;23.252;2022-08-21T19:48:24;10.37;;;6.87;;
9260;SDS011;4667;42.726;23.252;2022-08-21T19:50:51;9.33;;;6.80;;
9260;SDS011;4667;42.726;23.252;2022-08-21T19:53:18;7.53;;;6.40;;
9260;SDS011;4667;42.726;23.252;2022-08-21T19:55:45;7.80;;;5.78;;
9260;SDS011;4667;42.726;23.252;2022-08-21T19:58:17;9.37;;;5.83;;
9260;SDS011;4667;42.726;23.252;2022-08-21T20:00:46;8.03;;;6.37;;
9260;SDS011;4667;42.726;23.252;2022-08-21T20:03:13;9.57;;;6.43;;
9260;SDS011;4667;42.726;23.252;2022-08-21T20:05:40;9.80;;;6.33;;
9260;SDS011;4667;42.726;23.252;2022-08-21T20:08:08;9.83;;;6.90;;
9260;SDS011;4667;42.726;23.252;2022-08-21T20:10:34;6.93;;;5.67;;
9260;SDS011;4667;42.726;23.252;2022-08-21T20:13:01;9.43;;;5.93;;
9260;SDS011;4667;42.726;23.252;2022-08-21T20:15:29;7.82;;;6.20;;
9260;SDS011;4667;42.726;23.252;2022-08-21T20:17:56;7.13;;;5.63;;
9260;SDS011;4667;42.726;23.252;2022-08-21T20:20:23;9.37;;;6.93;;
9260;SDS011;4667;42.726;23.252;2022-08-21T20:22:50;7.70;;;5.73;;
9260;SDS011;4667;42.726;23.252;2022-08-21T20:25:16;12.32;;;6.82;;
9260;SDS011;4667;42.726;23.252;2022-08-21T20:27:43;9.73;;;6.57;;
9260;SDS011;4667;42.726;23.252;2022-08-21T20:30:11;10.30;;;6.38;;
9260;SDS011;4667;42.726;23.252;2022-08-21T20:32:39;8.20;;;6.70;;
9260;SDS011;4667;42.726;23.252;2022-08-21T20:35:06;9.73;;;6.65;;
9260;SDS011;4667;42.726;23.252;2022-08-21T20:37:32;9.15;;;6.10;;
9260;SDS011;4667;42.726;23.252;2022-08-21T20:39:59;11.43;;;6.70;;
9260;SDS011;4667;42.726;23.252;2022-08-21T20:42:25;8.77;;;6.43;;
9260;SDS011;4667;42.726;23.252;2022-08-21T20:44:52;8.00;;;5.47;;
9260;SDS011;4667;42.726;23.252;2022-08-21T20:47:19;8.75;;;6.10;;
9260;SDS011;4667;42.726;23.252;2022-08-21T20:49:49;9.07;;;5.77;;
9260;SDS011;4667;42.726;23.252;2022-08-21T20:52:16;9.20;;;6.22;;
9260;SDS011;4667;42.726;23.252;2022-08-21T20:54:44;7.77;;;5.63;;
9260;SDS011;4667;42.726;23.252;2022-08-21T20:57:14;9.00;;;6.37;;
9260;SDS011;4667;42.726;23.252;2022-08-21T20:59:45;9.33;;;6.33;;
9260;SDS011;4667;42.726;23.252;2022-08-21T21:02:18;8.17;;;6.10;;
9260;SDS011;4667;42.726;23.252;2022-08-21T21:04:48;8.80;;;5.60;;
9260;SDS011;4667;42.726;23.252;2022-08-21T21:07:17;6.40;;;5.43;;
9260;SDS011;4667;42.726;23.252;2022-08-21T21:09:46;9.43;;;5.60;;
9260;SDS011;4667;42.726;23.252;2022-08-21T21:12:14;9.70;;;6.40;;
9260;SDS011;4667;42.726;23.252;2022-08-21T21:14:42;6.67;;;4.83;;
9260;SDS011;4667;42.726;23.252;2022-08-21T21:17:12;7.73;;;4.73;;
9260;SDS011;4667;42.726;23.252;2022-08-21T21:19:41;7.50;;;5.17;;
9260;SDS011;4667;42.726;23.252;2022-08-21T21:22:12;9.30;;;5.40;;
9260;SDS011;4667;42.726;23.252;2022-08-21T21:24:40;7.97;;;5.87;;
9260;SDS011;4667;42.726;23.252;2022-08-21T21:27:10;6.80;;;4.50;;
9260;SDS011;4667;42.726;23.252;2022-08-21T21:29:39;7.70;;;5.90;;
9260;SDS011;4667;42.726;23.252;2022-08-21T21:32:07;5.53;;;5.03;;
9260;SDS011;4667;42.726;23.252;2022-08-21T21:34:34;5.80;;;4.63;;
9260;SDS011;4667;42.726;23.252;2022-08-21T21:37:02;9.40;;;5.50;;
9260;SDS011;4667;42.726;23.252;2022-08-21T21:39:32;6.77;;;5.00;;
9260;SDS011;4667;42.726;23.252;2022-08-21T21:42:03;7.43;;;4.60;;
9260;SDS011;4667;42.726;23.252;2022-08-21T21:44:37;8.63;;;5.70;;
9260;SDS011;4667;42.726;23.252;2022-08-21T21:47:10;8.03;;;5.40;;
9260;SDS011;4667;42.726;23.252;2022-08-21T21:49:52;7.77;;;5.13;;
9260;SDS011;4667;42.726;23.252;2022-08-21T21:52:29;9.57;;;5.63;;
9260;SDS011;4667;42.726;23.252;2022-08-21T21:55:02;7.77;;;5.97;;
9260;SDS011;4667;42.726;23.252;2022-08-21T21:57:35;8.97;;;5.50;;
9260;SDS011;4667;42.726;23.252;2022-08-21T22:00:09;8.23;;;5.60;;
9260;SDS011;4667;42.726;23.252;2022-08-21T22:02:40;9.07;;;6.00;;
9260;SDS011;4667;42.726;23.252;2022-08-21T22:05:12;8.00;;;5.40;;
9260;SDS011;4667;42.726;23.252;2022-08-21T22:07:42;8.27;;;5.23;;
9260;SDS011;4667;42.726;23.252;2022-08-21T22:10:13;7.73;;;5.30;;
9260;SDS011;4667;42.726;23.252;2022-08-21T22:12:43;6.53;;;5.50;;
9260;SDS011;4667;42.726;23.252;2022-08-21T22:15:11;8.23;;;6.10;;
9260;SDS011;4667;42.726;23.252;2022-08-21T22:17:41;8.30;;;6.33;;
9260;SDS011;4667;42.726;23.252;2022-08-21T22:20:10;9.73;;;6.37;;
9260;SDS011;4667;42.726;23.252;2022-08-21T22:22:38;7.97;;;5.83;;
9260;SDS011;4667;42.726;23.252;2022-08-21T22:25:07;7.77;;;5.93;;
9260;SDS011;4667;42.726;23.252;2022-08-21T22:27:39;8.17;;;6.17;;
9260;SDS011;4667;42.726;23.252;2022-08-21T22:30:07;8.73;;;5.50;;
9260;SDS011;4667;42.726;23.252;2022-08-21T22:32:35;8.07;;;5.87;;
9260;SDS011;4667;42.726;23.252;2022-08-21T22:35:04;8.03;;;5.30;;
9260;SDS011;4667;42.726;23.252;2022-08-21T22:37:34;8.40;;;6.53;;
9260;SDS011;4667;42.726;23.252;2022-08-21T22:40:02;7.70;;;6.60;;
9260;SDS011;4667;42.726;23.252;2022-08-21T22:42:29;7.40;;;6.00;;
9260;SDS011;4667;42.726;23.252;2022-08-21T22:44:58;7.83;;;6.53;;
9260;SDS011;4667;42.726;23.252;2022-08-21T22:47:28;10.30;;;7.10;;
9260;SDS011;4667;42.726;23.252;2022-08-21T22:49:57;12.03;;;7.73;;
9260;SDS011;4667;42.726;23.252;2022-08-21T22:52:25;7.30;;;5.87;;
9260;SDS011;4667;42.726;23.252;2022-08-21T22:54:52;9.40;;;6.13;;
9260;SDS011;4667;42.726;23.252;2022-08-21T22:57:21;8.40;;;6.73;;
9260;SDS011;4667;42.726;23.252;2022-08-21T22:59:51;7.87;;;6.27;;
9260;SDS011;4667;42.726;23.252;2022-08-21T23:02:24;8.60;;;6.67;;